sensor_id;sensor_type;location;lat;lon;timestamp;P1;durP1;ratioP1;P2;durP2;ratioP2
6531;SDS011;3299;42.004;24.868;2022-11-15T00:01:45;7.90;;;6.28;;
6531;SDS011;3299;42.004;24.868;2022-11-15T00:04:10;6.97;;;6.18;;
6531;SDS011;3299;42.004;24.868;2022-11-15T00:06:36;7.93;;;6.72;;
6531;SDS011;3299;42.004;24.868;2022-11-15T00:09:01;8.07;;;6.78;;
6531;SDS011;3299;42.004;24.868;2022-11-15T00:11:27;9.25;;;7.35;;
6531;SDS011;3299;42.004;24.868;2022-11-15T00:13:56;8.05;;;6.18;;
6531;SDS011;3299;42.004;24.868;2022-11-15T00:16:23;8.38;;;6.50;;
6531;SDS011;3299;42.004;24.868;2022-11-15T00:18:48;7.80;;;7.00;;
6531;SDS011;3299;42.004;24.868;2022-11-15T00:21:14;7.25;;;6.20;;
6531;SDS011;3299;42.004;24.868;2022-11-15T00:23:41;7.85;;;6.03;;
6531;SDS011;3299;42.004;24.868;2022-11-15T00:26:08;8.25;;;6.28;;
6531;SDS011;3299;42.004;24.868;2022-11-15T00:28:36;7.38;;;5.82;;
6531;SDS011;3299;42.004;24.868;2022-11-15T00:31:06;7.80;;;6.35;;
6531;SDS011;3299;42.004;24.868;2022-11-15T00:33:33;8.18;;;6.57;;
6531;SDS011;3299;42.004;24.868;2022-11-15T00:36:02;7.53;;;6.18;;
6531;SDS011;3299;42.004;24.868;2022-11-15T00:38:30;8.02;;;6.32;;
6531;SDS011;3299;42.004;24.868;2022-11-15T00:40:57;8.57;;;6.57;;
6531;SDS011;3299;42.004;24.868;2022-11-15T00:43:22;7.45;;;6.10;;
6531;SDS011;3299;42.004;24.868;2022-11-15T00:45:48;7.28;;;6.28;;
6531;SDS011;3299;42.004;24.868;2022-11-15T00:48:13;7.70;;;6.43;;
6531;SDS011;3299;42.004;24.868;2022-11-15T00:50:39;8.30;;;7.10;;
6531;SDS011;3299;42.004;24.868;2022-11-15T00:53:04;10.50;;;6.55;;
6531;SDS011;3299;42.004;24.868;2022-11-15T00:55:29;8.15;;;6.28;;
6531;SDS011;3299;42.004;24.868;2022-11-15T00:57:55;9.55;;;6.68;;
6531;SDS011;3299;42.004;24.868;2022-11-15T01:00:20;12.85;;;5.97;;
6531;SDS011;3299;42.004;24.868;2022-11-15T01:02:46;7.55;;;6.35;;
6531;SDS011;3299;42.004;24.868;2022-11-15T01:05:11;8.50;;;6.28;;
6531;SDS011;3299;42.004;24.868;2022-11-15T01:07:37;9.27;;;6.50;;
6531;SDS011;3299;42.004;24.868;2022-11-15T01:10:02;8.95;;;6.85;;
6531;SDS011;3299;42.004;24.868;2022-11-15T01:12:28;6.75;;;5.75;;
6531;SDS011;3299;42.004;24.868;2022-11-15T01:14:54;6.05;;;5.45;;
6531;SDS011;3299;42.004;24.868;2022-11-15T01:17:19;6.90;;;6.05;;
6531;SDS011;3299;42.004;24.868;2022-11-15T01:19:45;7.93;;;6.20;;
6531;SDS011;3299;42.004;24.868;2022-11-15T01:22:10;8.05;;;6.25;;
6531;SDS011;3299;42.004;24.868;2022-11-15T01:24:36;9.82;;;6.88;;
6531;SDS011;3299;42.004;24.868;2022-11-15T01:27:01;7.63;;;6.20;;
6531;SDS011;3299;42.004;24.868;2022-11-15T01:29:27;6.80;;;6.05;;
6531;SDS011;3299;42.004;24.868;2022-11-15T01:31:52;8.10;;;6.90;;
6531;SDS011;3299;42.004;24.868;2022-11-15T01:34:18;7.55;;;6.65;;
6531;SDS011;3299;42.004;24.868;2022-11-15T01:36:44;7.30;;;6.05;;
6531;SDS011;3299;42.004;24.868;2022-11-15T01:39:09;8.35;;;5.88;;
6531;SDS011;3299;42.004;24.868;2022-11-15T01:41:34;6.43;;;5.63;;
6531;SDS011;3299;42.004;24.868;2022-11-15T01:47:00;6.50;;;5.72;;
6531;SDS011;3299;42.004;24.868;2022-11-15T01:49:29;7.53;;;5.82;;
6531;SDS011;3299;42.004;24.868;2022-11-15T01:51:57;6.35;;;5.63;;
6531;SDS011;3299;42.004;24.868;2022-11-15T01:54:23;6.63;;;5.88;;
6531;SDS011;3299;42.004;24.868;2022-11-15T01:57:11;7.30;;;6.20;;
6531;SDS011;3299;42.004;24.868;2022-11-15T01:59:37;7.85;;;5.72;;
6531;SDS011;3299;42.004;24.868;2022-11-15T02:02:05;7.55;;;5.88;;
6531;SDS011;3299;42.004;24.868;2022-11-15T02:04:32;7.55;;;6.05;;
6531;SDS011;3299;42.004;24.868;2022-11-15T02:07:03;6.20;;;5.50;;
6531;SDS011;3299;42.004;24.868;2022-11-15T02:09:30;6.60;;;5.35;;
6531;SDS011;3299;42.004;24.868;2022-11-15T02:11:56;7.85;;;6.18;;
6531;SDS011;3299;42.004;24.868;2022-11-15T02:14:24;6.63;;;5.90;;
6531;SDS011;3299;42.004;24.868;2022-11-15T02:29:13;8.60;;;6.10;;
6531;SDS011;3299;42.004;24.868;2022-11-15T02:31:26;5.78;;;5.15;;
6531;SDS011;3299;42.004;24.868;2022-11-15T02:34:00;7.35;;;5.85;;
6531;SDS011;3299;42.004;24.868;2022-11-15T02:39:15;7.85;;;5.75;;
6531;SDS011;3299;42.004;24.868;2022-11-15T02:41:48;9.10;;;6.03;;
6531;SDS011;3299;42.004;24.868;2022-11-15T02:44:24;7.90;;;5.68;;
6531;SDS011;3299;42.004;24.868;2022-11-15T02:47:02;7.05;;;5.95;;
6531;SDS011;3299;42.004;24.868;2022-11-15T02:49:46;5.72;;;5.10;;
6531;SDS011;3299;42.004;24.868;2022-11-15T02:52:14;6.43;;;5.68;;
6531;SDS011;3299;42.004;24.868;2022-11-15T02:54:54;6.70;;;5.97;;
6531;SDS011;3299;42.004;24.868;2022-11-15T02:57:25;6.70;;;5.82;;
6531;SDS011;3299;42.004;24.868;2022-11-15T03:00:17;6.05;;;5.40;;
6531;SDS011;3299;42.004;24.868;2022-11-15T03:08:31;6.80;;;5.15;;
6531;SDS011;3299;42.004;24.868;2022-11-15T03:19:53;6.47;;;5.43;;
6531;SDS011;3299;42.004;24.868;2022-11-15T03:22:21;6.07;;;5.47;;
6531;SDS011;3299;42.004;24.868;2022-11-15T03:24:54;7.72;;;5.43;;
6531;SDS011;3299;42.004;24.868;2022-11-15T03:27:25;7.78;;;5.53;;
6531;SDS011;3299;42.004;24.868;2022-11-15T03:29:58;6.28;;;5.30;;
6531;SDS011;3299;42.004;24.868;2022-11-15T03:32:28;5.80;;;5.07;;
6531;SDS011;3299;42.004;24.868;2022-11-15T03:40:27;6.63;;;5.47;;
6531;SDS011;3299;42.004;24.868;2022-11-15T03:43:07;7.60;;;5.57;;
6531;SDS011;3299;42.004;24.868;2022-11-15T03:45:44;5.57;;;4.68;;
6531;SDS011;3299;42.004;24.868;2022-11-15T03:48:26;5.78;;;5.20;;
6531;SDS011;3299;42.004;24.868;2022-11-15T03:50:55;6.25;;;5.03;;
6531;SDS011;3299;42.004;24.868;2022-11-15T03:53:21;5.45;;;4.90;;
6531;SDS011;3299;42.004;24.868;2022-11-15T03:55:47;6.55;;;5.90;;
6531;SDS011;3299;42.004;24.868;2022-11-15T03:58:12;5.97;;;4.85;;
6531;SDS011;3299;42.004;24.868;2022-11-15T04:00:38;6.47;;;5.25;;
6531;SDS011;3299;42.004;24.868;2022-11-15T04:03:03;5.35;;;4.85;;
6531;SDS011;3299;42.004;24.868;2022-11-15T04:05:29;6.78;;;5.05;;
6531;SDS011;3299;42.004;24.868;2022-11-15T04:07:54;5.95;;;5.03;;
6531;SDS011;3299;42.004;24.868;2022-11-15T04:10:19;6.93;;;5.72;;
6531;SDS011;3299;42.004;24.868;2022-11-15T04:12:45;5.70;;;4.40;;
6531;SDS011;3299;42.004;24.868;2022-11-15T04:15:14;5.90;;;4.70;;
6531;SDS011;3299;42.004;24.868;2022-11-15T04:20:19;9.27;;;5.22;;
6531;SDS011;3299;42.004;24.868;2022-11-15T04:23:06;4.65;;;4.25;;
6531;SDS011;3299;42.004;24.868;2022-11-15T04:25:54;5.72;;;4.75;;
6531;SDS011;3299;42.004;24.868;2022-11-15T04:28:21;5.13;;;4.63;;
6531;SDS011;3299;42.004;24.868;2022-11-15T04:30:47;5.97;;;5.00;;
6531;SDS011;3299;42.004;24.868;2022-11-15T04:33:12;5.75;;;5.25;;
6531;SDS011;3299;42.004;24.868;2022-11-15T04:35:38;7.32;;;4.78;;
6531;SDS011;3299;42.004;24.868;2022-11-15T04:38:05;5.13;;;4.55;;
6531;SDS011;3299;42.004;24.868;2022-11-15T04:40:33;4.75;;;4.30;;
6531;SDS011;3299;42.004;24.868;2022-11-15T04:42:59;6.18;;;5.20;;
6531;SDS011;3299;42.004;24.868;2022-11-15T04:45:24;6.60;;;4.60;;
6531;SDS011;3299;42.004;24.868;2022-11-15T04:47:50;6.15;;;4.60;;
6531;SDS011;3299;42.004;24.868;2022-11-15T04:50:15;5.65;;;4.72;;
6531;SDS011;3299;42.004;24.868;2022-11-15T04:52:50;5.95;;;4.93;;
6531;SDS011;3299;42.004;24.868;2022-11-15T04:55:16;5.70;;;4.95;;
6531;SDS011;3299;42.004;24.868;2022-11-15T04:57:42;6.80;;;4.90;;
6531;SDS011;3299;42.004;24.868;2022-11-15T05:00:08;5.13;;;4.60;;
6531;SDS011;3299;42.004;24.868;2022-11-15T05:02:36;7.55;;;4.50;;
6531;SDS011;3299;42.004;24.868;2022-11-15T05:05:20;4.68;;;4.25;;
6531;SDS011;3299;42.004;24.868;2022-11-15T05:07:46;5.43;;;4.47;;
6531;SDS011;3299;42.004;24.868;2022-11-15T05:10:11;4.30;;;3.90;;
6531;SDS011;3299;42.004;24.868;2022-11-15T05:12:37;5.13;;;4.60;;
6531;SDS011;3299;42.004;24.868;2022-11-15T05:15:02;6.72;;;4.88;;
6531;SDS011;3299;42.004;24.868;2022-11-15T05:17:28;8.07;;;5.15;;
6531;SDS011;3299;42.004;24.868;2022-11-15T05:19:54;4.80;;;4.40;;
6531;SDS011;3299;42.004;24.868;2022-11-15T05:22:19;5.15;;;4.70;;
6531;SDS011;3299;42.004;24.868;2022-11-15T05:24:45;5.68;;;4.85;;
6531;SDS011;3299;42.004;24.868;2022-11-15T05:27:10;7.60;;;4.93;;
6531;SDS011;3299;42.004;24.868;2022-11-15T05:29:36;5.40;;;4.70;;
6531;SDS011;3299;42.004;24.868;2022-11-15T05:32:02;5.88;;;4.60;;
6531;SDS011;3299;42.004;24.868;2022-11-15T05:34:30;5.35;;;4.65;;
6531;SDS011;3299;42.004;24.868;2022-11-15T05:36:55;5.55;;;4.95;;
6531;SDS011;3299;42.004;24.868;2022-11-15T05:39:21;6.78;;;5.32;;
6531;SDS011;3299;42.004;24.868;2022-11-15T05:41:48;5.43;;;4.65;;
6531;SDS011;3299;42.004;24.868;2022-11-15T05:44:18;6.45;;;5.30;;
6531;SDS011;3299;42.004;24.868;2022-11-15T05:46:46;5.82;;;4.95;;
6531;SDS011;3299;42.004;24.868;2022-11-15T05:49:13;5.10;;;4.57;;
6531;SDS011;3299;42.004;24.868;2022-11-15T05:51:42;5.82;;;5.28;;
6531;SDS011;3299;42.004;24.868;2022-11-15T05:54:09;5.60;;;5.00;;
6531;SDS011;3299;42.004;24.868;2022-11-15T05:56:36;6.03;;;4.80;;
6531;SDS011;3299;42.004;24.868;2022-11-15T05:59:01;7.05;;;5.38;;
6531;SDS011;3299;42.004;24.868;2022-11-15T06:01:27;6.10;;;5.50;;
6531;SDS011;3299;42.004;24.868;2022-11-15T06:03:53;5.78;;;5.10;;
6531;SDS011;3299;42.004;24.868;2022-11-15T06:06:18;8.48;;;6.53;;
6531;SDS011;3299;42.004;24.868;2022-11-15T06:08:44;5.18;;;4.68;;
6531;SDS011;3299;42.004;24.868;2022-11-15T06:11:09;6.15;;;5.32;;
6531;SDS011;3299;42.004;24.868;2022-11-15T06:13:34;5.78;;;4.50;;
6531;SDS011;3299;42.004;24.868;2022-11-15T06:16:00;4.93;;;4.43;;
6531;SDS011;3299;42.004;24.868;2022-11-15T06:18:26;5.55;;;4.72;;
6531;SDS011;3299;42.004;24.868;2022-11-15T06:20:51;7.28;;;4.65;;
6531;SDS011;3299;42.004;24.868;2022-11-15T06:23:17;7.00;;;5.15;;
6531;SDS011;3299;42.004;24.868;2022-11-15T06:25:42;6.75;;;4.85;;
6531;SDS011;3299;42.004;24.868;2022-11-15T06:28:08;6.10;;;5.00;;
6531;SDS011;3299;42.004;24.868;2022-11-15T06:30:33;5.10;;;4.60;;
6531;SDS011;3299;42.004;24.868;2022-11-15T06:32:59;8.57;;;4.68;;
6531;SDS011;3299;42.004;24.868;2022-11-15T06:35:29;8.57;;;5.30;;
6531;SDS011;3299;42.004;24.868;2022-11-15T06:38:01;5.15;;;4.60;;
6531;SDS011;3299;42.004;24.868;2022-11-15T06:40:32;4.57;;;4.18;;
6531;SDS011;3299;42.004;24.868;2022-11-15T06:42:59;6.22;;;4.45;;
6531;SDS011;3299;42.004;24.868;2022-11-15T06:45:25;7.28;;;5.03;;
6531;SDS011;3299;42.004;24.868;2022-11-15T06:47:51;6.55;;;5.00;;
6531;SDS011;3299;42.004;24.868;2022-11-15T06:50:16;4.63;;;4.20;;
6531;SDS011;3299;42.004;24.868;2022-11-15T06:52:42;6.47;;;4.43;;
6531;SDS011;3299;42.004;24.868;2022-11-15T06:55:08;5.68;;;4.70;;
6531;SDS011;3299;42.004;24.868;2022-11-15T06:57:33;5.55;;;4.53;;
6531;SDS011;3299;42.004;24.868;2022-11-15T06:59:59;5.05;;;4.10;;
6531;SDS011;3299;42.004;24.868;2022-11-15T07:02:24;5.28;;;4.30;;
6531;SDS011;3299;42.004;24.868;2022-11-15T07:04:50;5.05;;;4.47;;
6531;SDS011;3299;42.004;24.868;2022-11-15T07:07:15;7.35;;;4.43;;
6531;SDS011;3299;42.004;24.868;2022-11-15T07:09:41;5.05;;;4.60;;
6531;SDS011;3299;42.004;24.868;2022-11-15T07:12:06;4.32;;;3.75;;
6531;SDS011;3299;42.004;24.868;2022-11-15T07:14:32;5.63;;;4.32;;
6531;SDS011;3299;42.004;24.868;2022-11-15T07:16:57;5.00;;;4.13;;
6531;SDS011;3299;42.004;24.868;2022-11-15T07:19:22;8.20;;;4.60;;
6531;SDS011;3299;42.004;24.868;2022-11-15T07:21:48;5.15;;;4.20;;
6531;SDS011;3299;42.004;24.868;2022-11-15T07:24:13;4.60;;;4.20;;
6531;SDS011;3299;42.004;24.868;2022-11-15T07:26:39;4.78;;;4.25;;
6531;SDS011;3299;42.004;24.868;2022-11-15T07:29:04;5.00;;;4.47;;
6531;SDS011;3299;42.004;24.868;2022-11-15T07:31:29;7.13;;;4.45;;
6531;SDS011;3299;42.004;24.868;2022-11-15T07:33:55;9.13;;;5.03;;
6531;SDS011;3299;42.004;24.868;2022-11-15T07:36:21;4.53;;;4.03;;
6531;SDS011;3299;42.004;24.868;2022-11-15T07:38:46;6.22;;;4.70;;
6531;SDS011;3299;42.004;24.868;2022-11-15T07:41:12;4.75;;;4.05;;
6531;SDS011;3299;42.004;24.868;2022-11-15T07:43:37;5.50;;;4.55;;
6531;SDS011;3299;42.004;24.868;2022-11-15T07:46:06;4.82;;;4.40;;
6531;SDS011;3299;42.004;24.868;2022-11-15T07:48:34;4.53;;;3.72;;
6531;SDS011;3299;42.004;24.868;2022-11-15T07:51:00;4.55;;;4.05;;
6531;SDS011;3299;42.004;24.868;2022-11-15T07:53:26;6.50;;;5.15;;
6531;SDS011;3299;42.004;24.868;2022-11-15T07:55:51;6.28;;;4.53;;
6531;SDS011;3299;42.004;24.868;2022-11-15T07:58:18;10.60;;;7.35;;
6531;SDS011;3299;42.004;24.868;2022-11-15T08:00:44;12.35;;;9.88;;
6531;SDS011;3299;42.004;24.868;2022-11-15T08:03:16;10.07;;;6.90;;
6531;SDS011;3299;42.004;24.868;2022-11-15T08:05:42;8.30;;;6.00;;
6531;SDS011;3299;42.004;24.868;2022-11-15T08:08:11;10.98;;;7.35;;
6531;SDS011;3299;42.004;24.868;2022-11-15T08:10:37;7.03;;;6.32;;
6531;SDS011;3299;42.004;24.868;2022-11-15T08:13:06;8.45;;;5.75;;
6531;SDS011;3299;42.004;24.868;2022-11-15T08:15:34;6.25;;;5.25;;
6531;SDS011;3299;42.004;24.868;2022-11-15T08:18:02;5.55;;;5.05;;
6531;SDS011;3299;42.004;24.868;2022-11-15T08:20:34;5.45;;;4.93;;
6531;SDS011;3299;42.004;24.868;2022-11-15T08:23:01;5.60;;;4.80;;
6531;SDS011;3299;42.004;24.868;2022-11-15T08:25:28;7.43;;;6.30;;
6531;SDS011;3299;42.004;24.868;2022-11-15T08:27:56;11.35;;;6.07;;
6531;SDS011;3299;42.004;24.868;2022-11-15T08:30:24;9.63;;;6.13;;
6531;SDS011;3299;42.004;24.868;2022-11-15T08:32:50;9.27;;;7.03;;
6531;SDS011;3299;42.004;24.868;2022-11-15T08:35:17;9.57;;;8.00;;
6531;SDS011;3299;42.004;24.868;2022-11-15T08:37:43;11.68;;;8.18;;
6531;SDS011;3299;42.004;24.868;2022-11-15T08:40:09;10.25;;;7.90;;
6531;SDS011;3299;42.004;24.868;2022-11-15T08:42:35;12.65;;;8.98;;
6531;SDS011;3299;42.004;24.868;2022-11-15T08:45:01;13.85;;;9.27;;
6531;SDS011;3299;42.004;24.868;2022-11-15T08:47:27;10.93;;;8.38;;
6531;SDS011;3299;42.004;24.868;2022-11-15T08:49:52;13.85;;;8.77;;
6531;SDS011;3299;42.004;24.868;2022-11-15T08:52:18;13.35;;;9.32;;
6531;SDS011;3299;42.004;24.868;2022-11-15T08:54:43;14.02;;;11.00;;
6531;SDS011;3299;42.004;24.868;2022-11-15T08:57:09;15.13;;;11.05;;
6531;SDS011;3299;42.004;24.868;2022-11-15T08:59:35;17.25;;;12.70;;
6531;SDS011;3299;42.004;24.868;2022-11-15T09:02:01;17.80;;;12.93;;
6531;SDS011;3299;42.004;24.868;2022-11-15T09:04:27;21.40;;;14.32;;
6531;SDS011;3299;42.004;24.868;2022-11-15T09:06:52;19.33;;;14.05;;
6531;SDS011;3299;42.004;24.868;2022-11-15T09:09:18;20.92;;;14.15;;
6531;SDS011;3299;42.004;24.868;2022-11-15T09:11:43;21.23;;;15.27;;
6531;SDS011;3299;42.004;24.868;2022-11-15T09:14:10;23.17;;;15.57;;
6531;SDS011;3299;42.004;24.868;2022-11-15T09:16:37;22.00;;;15.95;;
6531;SDS011;3299;42.004;24.868;2022-11-15T09:19:02;25.50;;;16.77;;
6531;SDS011;3299;42.004;24.868;2022-11-15T09:21:28;29.17;;;18.85;;
6531;SDS011;3299;42.004;24.868;2022-11-15T09:23:54;28.15;;;18.42;;
6531;SDS011;3299;42.004;24.868;2022-11-15T09:26:20;28.60;;;19.00;;
6531;SDS011;3299;42.004;24.868;2022-11-15T09:28:45;28.17;;;18.60;;
6531;SDS011;3299;42.004;24.868;2022-11-15T09:31:11;29.65;;;20.23;;
6531;SDS011;3299;42.004;24.868;2022-11-15T09:33:36;28.75;;;20.13;;
6531;SDS011;3299;42.004;24.868;2022-11-15T09:36:03;35.50;;;20.80;;
6531;SDS011;3299;42.004;24.868;2022-11-15T09:38:31;32.05;;;21.02;;
6531;SDS011;3299;42.004;24.868;2022-11-15T09:49:15;31.48;;;19.67;;
6531;SDS011;3299;42.004;24.868;2022-11-15T09:51:45;29.67;;;19.52;;
6531;SDS011;3299;42.004;24.868;2022-11-15T09:56:49;28.83;;;20.45;;
6531;SDS011;3299;42.004;24.868;2022-11-15T10:04:29;28.10;;;20.55;;
6531;SDS011;3299;42.004;24.868;2022-11-15T10:07:27;31.85;;;20.73;;
6531;SDS011;3299;42.004;24.868;2022-11-15T10:12:22;33.30;;;21.02;;
6531;SDS011;3299;42.004;24.868;2022-11-15T10:14:49;32.90;;;21.75;;
6531;SDS011;3299;42.004;24.868;2022-11-15T10:23:04;33.50;;;21.55;;
6531;SDS011;3299;42.004;24.868;2022-11-15T10:25:35;29.70;;;20.67;;
6531;SDS011;3299;42.004;24.868;2022-11-15T10:28:25;31.00;;;20.88;;
6531;SDS011;3299;42.004;24.868;2022-11-15T10:30:52;31.85;;;21.40;;
6531;SDS011;3299;42.004;24.868;2022-11-15T10:33:52;35.83;;;23.10;;
6531;SDS011;3299;42.004;24.868;2022-11-15T10:38:55;36.40;;;23.58;;
6531;SDS011;3299;42.004;24.868;2022-11-15T10:49:20;30.75;;;21.98;;
6531;SDS011;3299;42.004;24.868;2022-11-15T10:51:47;32.30;;;23.50;;
6531;SDS011;3299;42.004;24.868;2022-11-15T10:54:21;35.63;;;23.20;;
6531;SDS011;3299;42.004;24.868;2022-11-15T10:57:16;31.20;;;22.13;;
6531;SDS011;3299;42.004;24.868;2022-11-15T10:59:47;31.95;;;21.75;;
6531;SDS011;3299;42.004;24.868;2022-11-15T11:05:05;32.75;;;23.85;;
6531;SDS011;3299;42.004;24.868;2022-11-15T11:07:55;31.08;;;21.00;;
6531;SDS011;3299;42.004;24.868;2022-11-15T11:10:23;31.25;;;22.33;;
6531;SDS011;3299;42.004;24.868;2022-11-15T11:12:48;30.48;;;21.83;;
6531;SDS011;3299;42.004;24.868;2022-11-15T11:15:15;30.58;;;22.27;;
6531;SDS011;3299;42.004;24.868;2022-11-15T11:17:57;27.60;;;21.27;;
6531;SDS011;3299;42.004;24.868;2022-11-15T11:23:04;28.17;;;20.60;;
6531;SDS011;3299;42.004;24.868;2022-11-15T11:25:49;29.50;;;20.10;;
6531;SDS011;3299;42.004;24.868;2022-11-15T11:28:31;28.00;;;18.83;;
6531;SDS011;3299;42.004;24.868;2022-11-15T11:33:44;26.35;;;20.15;;
6531;SDS011;3299;42.004;24.868;2022-11-15T11:36:47;29.23;;;21.30;;
6531;SDS011;3299;42.004;24.868;2022-11-15T11:39:46;30.50;;;22.63;;
6531;SDS011;3299;42.004;24.868;2022-11-15T11:45:24;30.98;;;21.05;;
6531;SDS011;3299;42.004;24.868;2022-11-15T11:50:40;40.35;;;27.70;;
6531;SDS011;3299;42.004;24.868;2022-11-15T11:56:22;34.08;;;23.63;;
6531;SDS011;3299;42.004;24.868;2022-11-15T11:58:48;31.00;;;21.90;;
6531;SDS011;3299;42.004;24.868;2022-11-15T12:01:33;31.70;;;20.83;;
6531;SDS011;3299;42.004;24.868;2022-11-15T12:06:54;29.80;;;21.10;;
6531;SDS011;3299;42.004;24.868;2022-11-15T12:14:40;27.70;;;19.83;;
6531;SDS011;3299;42.004;24.868;2022-11-15T12:17:11;28.38;;;20.25;;
6531;SDS011;3299;42.004;24.868;2022-11-15T12:19:37;27.88;;;19.10;;
6531;SDS011;3299;42.004;24.868;2022-11-15T12:22:11;33.83;;;21.50;;
6531;SDS011;3299;42.004;24.868;2022-11-15T12:24:40;28.88;;;20.98;;
6531;SDS011;3299;42.004;24.868;2022-11-15T12:27:20;29.30;;;20.13;;
6531;SDS011;3299;42.004;24.868;2022-11-15T12:29:57;31.45;;;21.83;;
6531;SDS011;3299;42.004;24.868;2022-11-15T12:34:59;34.35;;;22.52;;
6531;SDS011;3299;42.004;24.868;2022-11-15T12:40:16;29.38;;;20.23;;
6531;SDS011;3299;42.004;24.868;2022-11-15T12:42:58;40.17;;;21.00;;
6531;SDS011;3299;42.004;24.868;2022-11-15T12:47:50;31.17;;;21.20;;
6531;SDS011;3299;42.004;24.868;2022-11-15T12:50:15;32.55;;;21.38;;
6531;SDS011;3299;42.004;24.868;2022-11-15T12:55:44;27.38;;;20.02;;
6531;SDS011;3299;42.004;24.868;2022-11-15T13:07:02;29.17;;;19.92;;
6531;SDS011;3299;42.004;24.868;2022-11-15T13:12:08;31.58;;;21.92;;
6531;SDS011;3299;42.004;24.868;2022-11-15T13:17:02;26.52;;;19.80;;
6531;SDS011;3299;42.004;24.868;2022-11-15T13:22:18;28.02;;;19.25;;
6531;SDS011;3299;42.004;24.868;2022-11-15T13:25:02;37.22;;;24.92;;
6531;SDS011;3299;42.004;24.868;2022-11-15T13:27:27;28.77;;;21.92;;
6531;SDS011;3299;42.004;24.868;2022-11-15T13:29:53;31.63;;;19.98;;
6531;SDS011;3299;42.004;24.868;2022-11-15T13:32:19;30.40;;;20.63;;
6531;SDS011;3299;42.004;24.868;2022-11-15T13:34:46;34.03;;;22.95;;
6531;SDS011;3299;42.004;24.868;2022-11-15T13:39:45;29.90;;;21.30;;
6531;SDS011;3299;42.004;24.868;2022-11-15T13:42:14;32.10;;;22.73;;
6531;SDS011;3299;42.004;24.868;2022-11-15T13:44:41;38.17;;;22.40;;
6531;SDS011;3299;42.004;24.868;2022-11-15T13:47:25;74.13;;;37.67;;
6531;SDS011;3299;42.004;24.868;2022-11-15T13:49:52;57.22;;;30.23;;
6531;SDS011;3299;42.004;24.868;2022-11-15T13:52:18;41.83;;;25.25;;
6531;SDS011;3299;42.004;24.868;2022-11-15T13:57:24;41.47;;;24.75;;
6531;SDS011;3299;42.004;24.868;2022-11-15T13:59:53;35.75;;;23.85;;
6531;SDS011;3299;42.004;24.868;2022-11-15T14:02:31;37.60;;;24.02;;
6531;SDS011;3299;42.004;24.868;2022-11-15T14:05:15;41.53;;;27.67;;
6531;SDS011;3299;42.004;24.868;2022-11-15T14:07:53;39.70;;;26.70;;
6531;SDS011;3299;42.004;24.868;2022-11-15T14:10:31;49.38;;;32.50;;
6531;SDS011;3299;42.004;24.868;2022-11-15T14:12:58;43.20;;;27.50;;
6531;SDS011;3299;42.004;24.868;2022-11-15T14:15:35;47.17;;;28.33;;
6531;SDS011;3299;42.004;24.868;2022-11-15T14:18:02;48.20;;;29.75;;
6531;SDS011;3299;42.004;24.868;2022-11-15T14:20:30;47.45;;;29.40;;
6531;SDS011;3299;42.004;24.868;2022-11-15T14:23:04;42.28;;;28.00;;
6531;SDS011;3299;42.004;24.868;2022-11-15T14:25:55;37.35;;;23.77;;
6531;SDS011;3299;42.004;24.868;2022-11-15T14:30:47;46.60;;;28.05;;
6531;SDS011;3299;42.004;24.868;2022-11-15T14:33:19;42.72;;;28.63;;
6531;SDS011;3299;42.004;24.868;2022-11-15T14:36:02;46.00;;;28.77;;
6531;SDS011;3299;42.004;24.868;2022-11-15T14:38:28;36.33;;;24.83;;
6531;SDS011;3299;42.004;24.868;2022-11-15T14:40:54;39.10;;;25.33;;
6531;SDS011;3299;42.004;24.868;2022-11-15T14:43:21;35.33;;;24.63;;
6531;SDS011;3299;42.004;24.868;2022-11-15T14:45:46;35.10;;;24.25;;
6531;SDS011;3299;42.004;24.868;2022-11-15T14:48:12;38.97;;;24.30;;
6531;SDS011;3299;42.004;24.868;2022-11-15T14:50:37;35.35;;;22.80;;
6531;SDS011;3299;42.004;24.868;2022-11-15T14:53:03;33.55;;;21.85;;
6531;SDS011;3299;42.004;24.868;2022-11-15T14:55:31;33.05;;;21.95;;
6531;SDS011;3299;42.004;24.868;2022-11-15T14:58:00;32.28;;;21.58;;
6531;SDS011;3299;42.004;24.868;2022-11-15T15:00:27;32.53;;;22.10;;
6531;SDS011;3299;42.004;24.868;2022-11-15T15:02:54;30.60;;;21.67;;
6531;SDS011;3299;42.004;24.868;2022-11-15T15:05:30;31.27;;;21.40;;
6531;SDS011;3299;42.004;24.868;2022-11-15T15:07:56;34.65;;;23.20;;
6531;SDS011;3299;42.004;24.868;2022-11-15T15:10:22;35.67;;;22.67;;
6531;SDS011;3299;42.004;24.868;2022-11-15T15:12:48;36.72;;;23.15;;
6531;SDS011;3299;42.004;24.868;2022-11-15T15:15:19;35.25;;;22.40;;
6531;SDS011;3299;42.004;24.868;2022-11-15T15:17:49;35.20;;;22.10;;
6531;SDS011;3299;42.004;24.868;2022-11-15T15:20:14;29.70;;;21.23;;
6531;SDS011;3299;42.004;24.868;2022-11-15T15:22:40;37.00;;;21.42;;
6531;SDS011;3299;42.004;24.868;2022-11-15T15:27:54;29.95;;;21.08;;
6531;SDS011;3299;42.004;24.868;2022-11-15T15:30:20;31.13;;;21.10;;
6531;SDS011;3299;42.004;24.868;2022-11-15T15:32:47;27.55;;;20.80;;
6531;SDS011;3299;42.004;24.868;2022-11-15T15:35:13;38.42;;;24.88;;
6531;SDS011;3299;42.004;24.868;2022-11-15T15:37:40;32.90;;;23.02;;
6531;SDS011;3299;42.004;24.868;2022-11-15T15:40:16;39.03;;;24.02;;
6531;SDS011;3299;42.004;24.868;2022-11-15T15:42:47;41.38;;;28.83;;
6531;SDS011;3299;42.004;24.868;2022-11-15T15:45:13;38.80;;;27.15;;
6531;SDS011;3299;42.004;24.868;2022-11-15T15:47:40;36.42;;;25.58;;
6531;SDS011;3299;42.004;24.868;2022-11-15T15:50:24;35.45;;;26.98;;
6531;SDS011;3299;42.004;24.868;2022-11-15T15:53:08;33.47;;;22.75;;
6531;SDS011;3299;42.004;24.868;2022-11-15T15:55:35;28.63;;;19.40;;
6531;SDS011;3299;42.004;24.868;2022-11-15T15:58:01;29.90;;;21.45;;
6531;SDS011;3299;42.004;24.868;2022-11-15T16:00:28;35.53;;;22.35;;
6531;SDS011;3299;42.004;24.868;2022-11-15T16:02:53;36.22;;;25.27;;
6531;SDS011;3299;42.004;24.868;2022-11-15T16:05:19;32.72;;;21.40;;
6531;SDS011;3299;42.004;24.868;2022-11-15T16:07:45;31.38;;;21.05;;
6531;SDS011;3299;42.004;24.868;2022-11-15T16:10:27;28.10;;;20.15;;
6531;SDS011;3299;42.004;24.868;2022-11-15T16:12:55;32.35;;;21.38;;
6531;SDS011;3299;42.004;24.868;2022-11-15T16:15:22;35.80;;;22.70;;
6531;SDS011;3299;42.004;24.868;2022-11-15T16:17:52;30.35;;;20.50;;
6531;SDS011;3299;42.004;24.868;2022-11-15T16:22:54;33.15;;;20.52;;
6531;SDS011;3299;42.004;24.868;2022-11-15T16:25:19;31.83;;;21.83;;
6531;SDS011;3299;42.004;24.868;2022-11-15T16:27:44;30.05;;;20.10;;
6531;SDS011;3299;42.004;24.868;2022-11-15T16:30:14;30.80;;;20.02;;
6531;SDS011;3299;42.004;24.868;2022-11-15T16:32:41;28.50;;;19.70;;
6531;SDS011;3299;42.004;24.868;2022-11-15T16:35:09;29.58;;;20.42;;
6531;SDS011;3299;42.004;24.868;2022-11-15T16:37:39;27.73;;;19.25;;
6531;SDS011;3299;42.004;24.868;2022-11-15T16:40:27;31.15;;;21.65;;
6531;SDS011;3299;42.004;24.868;2022-11-15T16:42:56;34.60;;;21.65;;
6531;SDS011;3299;42.004;24.868;2022-11-15T16:45:23;34.38;;;21.85;;
6531;SDS011;3299;42.004;24.868;2022-11-15T16:47:49;31.83;;;21.13;;
6531;SDS011;3299;42.004;24.868;2022-11-15T16:50:22;31.13;;;20.60;;
6531;SDS011;3299;42.004;24.868;2022-11-15T16:52:53;29.45;;;19.83;;
6531;SDS011;3299;42.004;24.868;2022-11-15T16:55:20;26.38;;;19.83;;
6531;SDS011;3299;42.004;24.868;2022-11-15T16:57:47;34.45;;;21.75;;
6531;SDS011;3299;42.004;24.868;2022-11-15T17:00:13;29.90;;;20.63;;
6531;SDS011;3299;42.004;24.868;2022-11-15T17:02:41;39.70;;;22.73;;
6531;SDS011;3299;42.004;24.868;2022-11-15T17:05:10;39.10;;;23.60;;
6531;SDS011;3299;42.004;24.868;2022-11-15T17:07:37;42.47;;;25.20;;
6531;SDS011;3299;42.004;24.868;2022-11-15T17:10:03;37.33;;;23.02;;
6531;SDS011;3299;42.004;24.868;2022-11-15T17:12:31;31.40;;;20.83;;
6531;SDS011;3299;42.004;24.868;2022-11-15T17:15:00;33.20;;;21.23;;
6531;SDS011;3299;42.004;24.868;2022-11-15T17:17:26;34.05;;;22.23;;
6531;SDS011;3299;42.004;24.868;2022-11-15T17:19:52;29.20;;;20.15;;